createdAt,value
2023-05-06T00:00:27.349Z,12.20
2023-05-06T00:05:35.580Z,12.00
2023-05-06T00:10:40.442Z,12.00
2023-05-06T00:15:45.178Z,11.90
2023-05-06T00:20:51.621Z,12.00
2023-05-06T00:25:56.176Z,12.00
2023-05-06T00:31:03.603Z,12.00
2023-05-06T00:36:10.322Z,11.90
2023-05-06T00:41:24.624Z,11.70
2023-05-06T00:46:30.966Z,11.60
2023-05-06T00:51:40.273Z,11.50
2023-05-06T00:56:45.123Z,11.70
2023-05-06T01:01:48.580Z,11.80
2023-05-06T01:07:07.897Z,12.00
2023-05-06T01:12:14.024Z,11.90
2023-05-06T01:17:20.462Z,11.90
2023-05-06T01:22:26.632Z,11.80
2023-05-06T01:27:33.354Z,11.70
2023-05-06T01:32:42.412Z,11.70
2023-05-06T01:37:53.499Z,11.90
2023-05-06T01:42:59.479Z,12.00
2023-05-06T01:48:06.925Z,11.90
2023-05-06T01:53:11.771Z,11.80
2023-05-06T01:58:17.893Z,11.90
2023-05-06T02:03:22.511Z,11.80
2023-05-06T02:08:26.528Z,11.60
2023-05-06T02:13:32.037Z,11.40
2023-05-06T02:18:36.461Z,11.10
2023-05-06T02:23:40.874Z,10.80
2023-05-06T02:28:47.606Z,10.70
2023-05-06T02:33:53.351Z,10.90
2023-05-06T02:38:57.079Z,10.90
2023-05-06T02:44:02.030Z,10.80
2023-05-06T02:49:08.629Z,10.70
2023-05-06T02:54:12.428Z,10.90
2023-05-06T02:59:18.098Z,10.80
2023-05-06T03:04:22.328Z,10.80
2023-05-06T03:09:26.150Z,10.70
2023-05-06T03:14:37.346Z,10.50
2023-05-06T03:19:42.424Z,10.50
2023-05-06T03:24:49.463Z,10.00
2023-05-06T03:29:58.016Z,9.90
2023-05-06T03:35:03.515Z,10.20
2023-05-06T03:40:10.703Z,10.10
2023-05-06T03:45:16.586Z,10.10
2023-05-06T03:50:21.784Z,10.20
2023-05-06T03:55:27.090Z,10.20
2023-05-06T04:00:37.085Z,10.10
2023-05-06T04:05:41.324Z,10.10
2023-05-06T04:10:47.287Z,10.00
2023-05-06T04:16:05.993Z,9.90
2023-05-06T04:21:14.966Z,9.70
2023-05-06T04:26:24.531Z,9.90
2023-05-06T04:31:29.889Z,10.40
2023-05-06T04:36:40.975Z,10.30
2023-05-06T04:41:58.992Z,10.20
2023-05-06T04:47:12.336Z,10.10
2023-05-06T04:52:18.672Z,10.30
2023-05-06T04:57:22.449Z,10.50
2023-05-06T05:02:31.606Z,10.50
2023-05-06T05:07:37.076Z,10.60
2023-05-06T05:12:41.690Z,10.80
2023-05-06T05:17:47.171Z,10.90
2023-05-06T05:22:51.944Z,11.30
2023-05-06T05:27:56.357Z,11.40
2023-05-06T05:33:02.659Z,11.20
2023-05-06T05:38:10.477Z,11.40
2023-05-06T05:43:15.409Z,11.70
2023-05-06T05:48:24.473Z,12.00
2023-05-06T05:53:28.353Z,12.20
2023-05-06T05:58:32.910Z,12.10
2023-05-06T06:03:41.130Z,12.20
2023-05-06T06:08:45.418Z,12.40
2023-05-06T06:13:52.526Z,12.70
2023-05-06T06:19:00.465Z,12.80
2023-05-06T06:24:06.473Z,12.70
2023-05-06T06:29:10.035Z,12.80
2023-05-06T06:34:16.719Z,13.30
2023-05-06T06:39:20.359Z,13.40
2023-05-06T06:44:25.343Z,13.90
2023-05-06T06:49:30.747Z,13.90
2023-05-06T06:54:34.132Z,13.80
2023-05-06T06:59:37.998Z,13.90
2023-05-06T07:04:43.758Z,14.10
2023-05-06T07:09:47.662Z,14.30
2023-05-06T07:14:51.323Z,14.70
2023-05-06T07:19:57.366Z,14.50
2023-05-06T07:25:02.143Z,14.60
2023-05-06T07:30:06.043Z,14.50
2023-05-06T07:35:12.488Z,14.60
2023-05-06T07:40:16.291Z,15.00
2023-05-06T07:45:23.516Z,15.00
2023-05-06T07:50:29.968Z,15.80
2023-05-06T07:55:39.669Z,16.30
2023-05-06T08:00:43.397Z,16.70
2023-05-06T08:05:51.441Z,16.50
2023-05-06T08:10:55.953Z,17.60
2023-05-06T08:15:59.810Z,18.20
2023-05-06T08:26:42.871Z,18.10
2023-05-06T08:31:49.523Z,18.70
2023-05-06T08:36:55.557Z,18.80
2023-05-06T08:42:00.839Z,19.00
2023-05-06T08:47:04.676Z,19.20
2023-05-06T08:52:09.898Z,19.70
2023-05-06T08:57:15.366Z,19.50
2023-05-06T09:02:23.654Z,19.00
2023-05-06T09:07:27.023Z,18.30
2023-05-06T09:12:38.158Z,18.70
2023-05-06T09:17:42.453Z,18.50
2023-05-06T09:22:46.294Z,18.10
2023-05-06T09:27:57.316Z,18.00
2023-05-06T09:33:04.942Z,18.00
2023-05-06T09:38:09.739Z,18.20
2023-05-06T09:43:16.527Z,18.00
2023-05-06T09:48:20.808Z,18.10
2023-05-06T09:53:25.528Z,18.50
2023-05-06T09:58:32.189Z,18.90
2023-05-06T10:03:36.375Z,19.20
2023-05-06T10:08:39.791Z,19.40
2023-05-06T10:13:45.004Z,19.90
2023-05-06T10:18:52.196Z,20.90
2023-05-06T10:23:59.975Z,21.10
2023-05-06T10:29:06.875Z,21.00
2023-05-06T10:34:10.627Z,21.50
2023-05-06T10:39:14.692Z,22.80
2023-05-06T10:44:20.254Z,23.50
2023-05-06T10:49:25.454Z,23.20
2023-05-06T10:54:32.113Z,23.50
2023-05-06T10:59:37.897Z,24.60
2023-05-06T11:04:41.583Z,24.00
2023-05-06T11:10:00.590Z,23.30
2023-05-06T11:15:26.084Z,22.80
2023-05-06T11:20:29.742Z,24.00
2023-05-06T11:25:43.957Z,23.50
2023-05-06T11:31:04.338Z,23.00
2023-05-06T11:36:08.860Z,22.70
2023-05-06T11:41:13.000Z,22.70
2023-05-06T11:46:20.956Z,22.60
2023-05-06T11:51:25.138Z,22.90
2023-05-06T11:56:39.353Z,23.50
2023-05-06T12:01:46.022Z,23.10
2023-05-06T12:06:51.518Z,22.10
2023-05-06T12:11:56.413Z,21.80
2023-05-06T12:17:02.036Z,21.60
2023-05-06T12:22:22.161Z,21.80
2023-05-06T12:27:33.013Z,22.40
2023-05-06T12:32:58.521Z,22.40
2023-05-06T12:38:09.707Z,22.40
2023-05-06T12:43:13.473Z,22.50
2023-05-06T12:48:20.087Z,23.30
2023-05-06T12:53:32.915Z,23.30
2023-05-06T12:58:38.125Z,23.90
2023-05-06T13:03:43.683Z,24.60
2023-05-06T13:08:47.281Z,24.40
2023-05-06T13:13:50.999Z,24.30
2023-05-06T13:18:56.439Z,24.40
2023-05-06T13:24:01.173Z,24.40
2023-05-06T13:29:05.598Z,24.50
2023-05-06T13:34:11.172Z,24.00
2023-05-06T13:39:16.984Z,24.80
2023-05-06T13:44:22.053Z,23.40
2023-05-06T13:49:28.845Z,22.60
2023-05-06T13:54:32.635Z,22.40
2023-05-06T13:59:56.492Z,22.40
2023-05-06T14:05:02.441Z,22.50
2023-05-06T14:10:07.827Z,21.90
2023-05-06T14:15:14.962Z,22.20
2023-05-06T14:20:20.669Z,22.40
2023-05-06T14:25:28.381Z,22.10
2023-05-06T14:30:34.383Z,21.50
2023-05-06T14:35:41.700Z,21.50
2023-05-06T14:40:46.105Z,21.50
2023-05-06T14:45:51.112Z,21.20
2023-05-06T14:50:59.619Z,21.20
2023-05-06T14:56:04.418Z,21.30
2023-05-06T15:01:08.602Z,20.90
2023-05-06T15:06:14.088Z,20.90
2023-05-06T15:11:18.750Z,21.10
2023-05-06T15:16:22.901Z,20.90
2023-05-06T15:21:27.884Z,20.70
2023-05-06T15:26:31.849Z,20.40
2023-05-06T15:31:41.311Z,20.40
2023-05-06T15:36:52.765Z,20.50
2023-05-06T15:41:56.366Z,20.60
2023-05-06T15:47:00.017Z,20.70
2023-05-06T15:52:05.894Z,20.60
2023-05-06T15:57:11.783Z,20.70
2023-05-06T16:07:23.749Z,21.10
2023-05-06T16:12:27.446Z,21.30
2023-05-06T16:17:38.828Z,21.40
2023-05-06T16:22:45.981Z,21.30
2023-05-06T16:27:52.474Z,21.20
2023-05-06T16:33:04.048Z,21.10
2023-05-06T16:38:09.368Z,21.00
2023-05-06T16:43:13.053Z,20.60
2023-05-06T16:48:19.611Z,20.40
2023-05-06T16:53:26.442Z,20.40
2023-05-06T16:58:30.369Z,20.20
2023-05-06T17:03:34.139Z,20.20
2023-05-06T17:08:41.475Z,20.10
2023-05-06T17:13:51.039Z,19.80
2023-05-06T17:18:55.467Z,19.60
2023-05-06T17:24:00.350Z,19.50
2023-05-06T17:29:04.144Z,19.50
2023-05-06T17:34:08.865Z,19.50
2023-05-06T17:39:15.482Z,19.50
2023-05-06T17:44:20.434Z,19.40
2023-05-06T17:49:26.169Z,19.30
2023-05-06T17:54:35.104Z,19.20
2023-05-06T17:59:38.585Z,19.10
2023-05-06T18:04:42.267Z,19.10
2023-05-06T18:09:52.321Z,19.00
2023-05-06T18:14:57.098Z,18.80
2023-05-06T18:20:01.676Z,18.70
2023-05-06T18:25:07.837Z,18.60
2023-05-06T18:30:11.697Z,18.50
2023-05-06T18:35:15.036Z,18.30
2023-05-06T18:40:20.485Z,18.30
2023-05-06T18:45:24.915Z,18.10
2023-05-06T18:50:28.871Z,17.90
2023-05-06T18:55:34.098Z,17.80
2023-05-06T19:00:37.746Z,17.60
2023-05-06T19:05:41.028Z,17.40
2023-05-06T19:10:45.894Z,17.40
2023-05-06T19:15:49.158Z,17.30
2023-05-06T19:20:53.537Z,17.10
2023-05-06T19:26:00.140Z,16.90
2023-05-06T19:31:09.515Z,16.70
2023-05-06T19:36:17.584Z,16.50
2023-05-06T19:41:23.315Z,16.40
2023-05-06T19:46:28.760Z,16.20
2023-05-06T19:51:33.770Z,16.10
2023-05-06T19:56:49.074Z,16.00
2023-05-06T20:01:55.709Z,16.00
2023-05-06T20:06:59.187Z,16.10
2023-05-06T20:12:04.499Z,16.00
2023-05-06T20:17:08.458Z,15.90
2023-05-06T20:22:12.491Z,15.90
2023-05-06T20:27:21.584Z,15.80
2023-05-06T20:32:27.303Z,15.80
2023-05-06T20:37:31.489Z,15.70
2023-05-06T20:42:36.184Z,15.60
2023-05-06T20:47:40.556Z,15.60
2023-05-06T20:52:45.725Z,15.50
2023-05-06T20:57:51.472Z,15.40
2023-05-06T21:02:56.846Z,15.30
2023-05-06T21:08:00.768Z,15.20
2023-05-06T21:13:08.001Z,15.10
2023-05-06T21:18:12.380Z,15.00
2023-05-06T21:23:17.787Z,14.90
2023-05-06T21:28:23.181Z,14.90
2023-05-06T21:33:27.525Z,14.70
2023-05-06T21:38:32.514Z,14.60
2023-05-06T21:43:37.936Z,14.70
2023-05-06T21:48:42.422Z,14.60
2023-05-06T21:53:50.564Z,14.70
2023-05-06T21:58:56.061Z,14.60
2023-05-06T22:04:00.641Z,14.50
2023-05-06T22:09:09.906Z,14.40
2023-05-06T22:14:16.080Z,14.20
2023-05-06T22:19:20.361Z,14.10
2023-05-06T22:24:24.130Z,13.90
2023-05-06T22:29:29.009Z,13.80
2023-05-06T22:34:33.798Z,13.80
2023-05-06T22:39:37.684Z,13.70
2023-05-06T22:44:42.562Z,13.60
2023-05-06T22:49:46.025Z,13.40
2023-05-06T22:54:49.918Z,13.40
2023-05-06T22:59:57.062Z,13.30
2023-05-06T23:05:01.872Z,13.20
2023-05-06T23:10:05.981Z,13.40
2023-05-06T23:15:12.754Z,13.30
2023-05-06T23:20:17.752Z,13.40
2023-05-06T23:25:22.136Z,13.30
2023-05-06T23:30:27.193Z,13.20
2023-05-06T23:35:32.196Z,13.30
2023-05-06T23:40:35.704Z,13.40
2023-05-06T23:45:41.365Z,13.30
2023-05-06T23:50:45.598Z,13.10
2023-05-06T23:55:50.764Z,12.90
